sensor_id;sensor_type;location;lat;lon;timestamp;temperature;humidity
4755;DHT22;2391;47.212;7.542;2022-07-29T00:00:08;25.00;81.10
4755;DHT22;2391;47.212;7.542;2022-07-29T00:02:35;25.00;81.30
4755;DHT22;2391;47.212;7.542;2022-07-29T00:05:01;25.00;81.60
4755;DHT22;2391;47.212;7.542;2022-07-29T00:07:28;25.00;81.90
4755;DHT22;2391;47.212;7.542;2022-07-29T00:09:54;25.00;82.30
4755;DHT22;2391;47.212;7.542;2022-07-29T00:12:21;25.00;82.10
4755;DHT22;2391;47.212;7.542;2022-07-29T00:14:48;25.00;82.30
4755;DHT22;2391;47.212;7.542;2022-07-29T00:17:14;24.90;82.20
4755;DHT22;2391;47.212;7.542;2022-07-29T00:19:40;24.90;82.50
4755;DHT22;2391;47.212;7.542;2022-07-29T00:22:06;24.90;82.00
4755;DHT22;2391;47.212;7.542;2022-07-29T00:24:32;24.80;81.50
4755;DHT22;2391;47.212;7.542;2022-07-29T00:26:58;24.80;81.70
4755;DHT22;2391;47.212;7.542;2022-07-29T00:29:24;24.80;82.30
4755;DHT22;2391;47.212;7.542;2022-07-29T00:31:50;24.80;82.50
4755;DHT22;2391;47.212;7.542;2022-07-29T00:34:16;24.70;82.40
4755;DHT22;2391;47.212;7.542;2022-07-29T00:37:00;24.70;82.40
4755;DHT22;2391;47.212;7.542;2022-07-29T00:39:26;24.60;82.80
4755;DHT22;2391;47.212;7.542;2022-07-29T00:41:52;24.60;83.10
4755;DHT22;2391;47.212;7.542;2022-07-29T00:44:18;24.60;83.30
4755;DHT22;2391;47.212;7.542;2022-07-29T00:46:44;24.60;83.30
4755;DHT22;2391;47.212;7.542;2022-07-29T00:49:10;24.60;83.20
4755;DHT22;2391;47.212;7.542;2022-07-29T00:51:36;24.70;83.50
4755;DHT22;2391;47.212;7.542;2022-07-29T00:54:03;24.70;83.30
4755;DHT22;2391;47.212;7.542;2022-07-29T00:56:33;24.70;83.30
4755;DHT22;2391;47.212;7.542;2022-07-29T00:58:59;24.70;83.90
4755;DHT22;2391;47.212;7.542;2022-07-29T01:01:26;24.70;84.30
4755;DHT22;2391;47.212;7.542;2022-07-29T01:03:52;24.70;84.20
4755;DHT22;2391;47.212;7.542;2022-07-29T01:06:19;24.70;84.10
4755;DHT22;2391;47.212;7.542;2022-07-29T01:08:46;24.70;84.30
4755;DHT22;2391;47.212;7.542;2022-07-29T01:11:14;24.70;84.30
4755;DHT22;2391;47.212;7.542;2022-07-29T01:13:41;24.70;84.50
4755;DHT22;2391;47.212;7.542;2022-07-29T01:16:10;24.70;84.70
4755;DHT22;2391;47.212;7.542;2022-07-29T01:18:39;24.70;85.40
4755;DHT22;2391;47.212;7.542;2022-07-29T01:21:27;24.60;85.40
4755;DHT22;2391;47.212;7.542;2022-07-29T01:24:03;24.60;86.50
4755;DHT22;2391;47.212;7.542;2022-07-29T01:34:08;24.50;87.00
4755;DHT22;2391;47.212;7.542;2022-07-29T01:36:43;24.50;86.90
4755;DHT22;2391;47.212;7.542;2022-07-29T01:39:26;24.50;87.40
4755;DHT22;2391;47.212;7.542;2022-07-29T01:42:10;24.40;87.40
4755;DHT22;2391;47.212;7.542;2022-07-29T01:44:50;24.40;87.80
4755;DHT22;2391;47.212;7.542;2022-07-29T01:47:15;24.30;87.50
4755;DHT22;2391;47.212;7.542;2022-07-29T01:49:46;24.30;87.80
4755;DHT22;2391;47.212;7.542;2022-07-29T01:52:25;24.30;88.30
4755;DHT22;2391;47.212;7.542;2022-07-29T01:54:54;24.30;88.30
4755;DHT22;2391;47.212;7.542;2022-07-29T01:57:26;24.30;88.00
4755;DHT22;2391;47.212;7.542;2022-07-29T01:59:53;24.30;88.00
4755;DHT22;2391;47.212;7.542;2022-07-29T02:02:20;24.40;87.90
4755;DHT22;2391;47.212;7.542;2022-07-29T02:04:47;24.40;87.80
4755;DHT22;2391;47.212;7.542;2022-07-29T02:07:19;24.40;87.50
4755;DHT22;2391;47.212;7.542;2022-07-29T02:09:45;24.40;87.30
4755;DHT22;2391;47.212;7.542;2022-07-29T02:12:14;24.40;88.10
4755;DHT22;2391;47.212;7.542;2022-07-29T02:14:48;24.40;88.50
4755;DHT22;2391;47.212;7.542;2022-07-29T02:17:12;24.40;88.40
4755;DHT22;2391;47.212;7.542;2022-07-29T02:19:39;24.30;88.50
4755;DHT22;2391;47.212;7.542;2022-07-29T02:22:08;24.30;88.90
4755;DHT22;2391;47.212;7.542;2022-07-29T02:24:36;24.30;89.00
4755;DHT22;2391;47.212;7.542;2022-07-29T02:27:03;24.30;88.70
4755;DHT22;2391;47.212;7.542;2022-07-29T02:29:30;24.30;89.10
4755;DHT22;2391;47.212;7.542;2022-07-29T02:31:58;24.20;88.80
4755;DHT22;2391;47.212;7.542;2022-07-29T02:34:25;24.30;88.80
4755;DHT22;2391;47.212;7.542;2022-07-29T02:36:52;24.20;88.90
4755;DHT22;2391;47.212;7.542;2022-07-29T02:39:19;24.30;89.30
4755;DHT22;2391;47.212;7.542;2022-07-29T02:41:55;24.30;89.30
4755;DHT22;2391;47.212;7.542;2022-07-29T02:44:24;24.30;89.10
4755;DHT22;2391;47.212;7.542;2022-07-29T02:47:22;24.30;89.10
4755;DHT22;2391;47.212;7.542;2022-07-29T02:50:15;24.30;89.60
4755;DHT22;2391;47.212;7.542;2022-07-29T02:52:44;24.30;89.30
4755;DHT22;2391;47.212;7.542;2022-07-29T02:57:55;24.30;89.20
4755;DHT22;2391;47.212;7.542;2022-07-29T03:00:23;24.30;89.00
4755;DHT22;2391;47.212;7.542;2022-07-29T03:02:53;24.30;89.00
4755;DHT22;2391;47.212;7.542;2022-07-29T03:05:20;24.20;88.50
4755;DHT22;2391;47.212;7.542;2022-07-29T03:07:52;24.20;89.10
4755;DHT22;2391;47.212;7.542;2022-07-29T03:10:17;24.20;89.10
4755;DHT22;2391;47.212;7.542;2022-07-29T03:12:44;24.20;90.00
4755;DHT22;2391;47.212;7.542;2022-07-29T03:15:10;24.20;90.20
4755;DHT22;2391;47.212;7.542;2022-07-29T03:17:37;24.20;90.20
4755;DHT22;2391;47.212;7.542;2022-07-29T03:20:04;24.20;90.10
4755;DHT22;2391;47.212;7.542;2022-07-29T03:22:30;24.20;90.00
4755;DHT22;2391;47.212;7.542;2022-07-29T03:24:56;24.20;89.90
4755;DHT22;2391;47.212;7.542;2022-07-29T03:27:22;24.20;89.70
4755;DHT22;2391;47.212;7.542;2022-07-29T03:29:48;24.20;90.00
4755;DHT22;2391;47.212;7.542;2022-07-29T03:32:13;24.20;89.90
4755;DHT22;2391;47.212;7.542;2022-07-29T03:34:39;24.10;89.50
4755;DHT22;2391;47.212;7.542;2022-07-29T03:37:05;24.10;89.60
4755;DHT22;2391;47.212;7.542;2022-07-29T03:39:35;24.10;89.40
4755;DHT22;2391;47.212;7.542;2022-07-29T03:42:02;24.00;89.10
4755;DHT22;2391;47.212;7.542;2022-07-29T03:44:30;24.00;89.30
4755;DHT22;2391;47.212;7.542;2022-07-29T03:46:58;24.00;89.10
4755;DHT22;2391;47.212;7.542;2022-07-29T03:49:27;23.90;88.80
4755;DHT22;2391;47.212;7.542;2022-07-29T03:51:54;23.80;88.70
4755;DHT22;2391;47.212;7.542;2022-07-29T03:54:20;23.80;89.00
4755;DHT22;2391;47.212;7.542;2022-07-29T03:56:48;23.70;89.80
4755;DHT22;2391;47.212;7.542;2022-07-29T03:59:17;23.60;90.00
4755;DHT22;2391;47.212;7.542;2022-07-29T04:01:45;23.60;90.20
4755;DHT22;2391;47.212;7.542;2022-07-29T04:04:12;23.60;90.50
4755;DHT22;2391;47.212;7.542;2022-07-29T04:06:42;23.60;90.50
4755;DHT22;2391;47.212;7.542;2022-07-29T04:09:09;23.60;90.60
4755;DHT22;2391;47.212;7.542;2022-07-29T04:11:37;23.60;90.60
4755;DHT22;2391;47.212;7.542;2022-07-29T04:14:03;23.70;90.50
4755;DHT22;2391;47.212;7.542;2022-07-29T04:16:29;23.70;90.40
4755;DHT22;2391;47.212;7.542;2022-07-29T04:18:55;23.80;90.30
4755;DHT22;2391;47.212;7.542;2022-07-29T04:21:21;23.80;90.40
4755;DHT22;2391;47.212;7.542;2022-07-29T04:23:47;23.80;90.40
4755;DHT22;2391;47.212;7.542;2022-07-29T04:26:19;23.80;90.40
4755;DHT22;2391;47.212;7.542;2022-07-29T04:28:42;23.90;90.50
4755;DHT22;2391;47.212;7.542;2022-07-29T04:31:09;23.90;90.40
4755;DHT22;2391;47.212;7.542;2022-07-29T04:33:35;23.90;90.40
4755;DHT22;2391;47.212;7.542;2022-07-29T04:36:01;23.90;90.50
4755;DHT22;2391;47.212;7.542;2022-07-29T04:38:27;23.90;90.30
4755;DHT22;2391;47.212;7.542;2022-07-29T04:40:53;23.90;90.30
4755;DHT22;2391;47.212;7.542;2022-07-29T04:43:18;23.90;90.30
4755;DHT22;2391;47.212;7.542;2022-07-29T04:45:44;23.80;90.20
4755;DHT22;2391;47.212;7.542;2022-07-29T04:48:10;23.70;90.20
4755;DHT22;2391;47.212;7.542;2022-07-29T04:50:40;23.70;90.20
4755;DHT22;2391;47.212;7.542;2022-07-29T04:53:06;23.70;90.10
4755;DHT22;2391;47.212;7.542;2022-07-29T04:55:33;23.70;90.10
4755;DHT22;2391;47.212;7.542;2022-07-29T04:57:59;23.70;90.10
4755;DHT22;2391;47.212;7.542;2022-07-29T05:00:24;23.70;90.00
4755;DHT22;2391;47.212;7.542;2022-07-29T05:02:50;23.70;90.00
4755;DHT22;2391;47.212;7.542;2022-07-29T05:05:16;23.60;90.10
4755;DHT22;2391;47.212;7.542;2022-07-29T05:07:42;23.60;90.10
4755;DHT22;2391;47.212;7.542;2022-07-29T05:10:08;23.60;89.90
4755;DHT22;2391;47.212;7.542;2022-07-29T05:12:34;23.60;89.90
4755;DHT22;2391;47.212;7.542;2022-07-29T05:15:00;23.60;89.90
4755;DHT22;2391;47.212;7.542;2022-07-29T05:17:26;23.60;90.00
4755;DHT22;2391;47.212;7.542;2022-07-29T05:19:52;23.60;90.10
4755;DHT22;2391;47.212;7.542;2022-07-29T05:22:18;23.60;90.30
4755;DHT22;2391;47.212;7.542;2022-07-29T05:24:44;23.60;90.10
4755;DHT22;2391;47.212;7.542;2022-07-29T05:27:10;23.60;90.20
4755;DHT22;2391;47.212;7.542;2022-07-29T05:29:36;23.60;90.50
4755;DHT22;2391;47.212;7.542;2022-07-29T05:32:03;23.60;90.10
4755;DHT22;2391;47.212;7.542;2022-07-29T05:34:29;23.60;90.20
4755;DHT22;2391;47.212;7.542;2022-07-29T05:36:56;23.70;90.10
4755;DHT22;2391;47.212;7.542;2022-07-29T05:39:22;23.70;90.10
4755;DHT22;2391;47.212;7.542;2022-07-29T05:41:49;23.60;90.20
4755;DHT22;2391;47.212;7.542;2022-07-29T05:44:15;23.60;90.20
4755;DHT22;2391;47.212;7.542;2022-07-29T05:46:41;23.60;90.40
4755;DHT22;2391;47.212;7.542;2022-07-29T05:49:07;23.60;90.70
4755;DHT22;2391;47.212;7.542;2022-07-29T05:51:34;23.60;90.60
4755;DHT22;2391;47.212;7.542;2022-07-29T05:54:00;23.60;90.90
4755;DHT22;2391;47.212;7.542;2022-07-29T05:56:26;23.60;90.90
4755;DHT22;2391;47.212;7.542;2022-07-29T05:58:51;23.60;90.80
4755;DHT22;2391;47.212;7.542;2022-07-29T06:01:18;23.60;90.80
4755;DHT22;2391;47.212;7.542;2022-07-29T06:03:43;23.60;91.10
4755;DHT22;2391;47.212;7.542;2022-07-29T06:06:09;23.60;90.90
4755;DHT22;2391;47.212;7.542;2022-07-29T06:08:36;23.60;90.90
4755;DHT22;2391;47.212;7.542;2022-07-29T06:11:03;23.60;90.90
4755;DHT22;2391;47.212;7.542;2022-07-29T06:13:29;23.60;90.80
4755;DHT22;2391;47.212;7.542;2022-07-29T06:15:55;23.60;91.00
4755;DHT22;2391;47.212;7.542;2022-07-29T06:18:22;23.60;90.80
4755;DHT22;2391;47.212;7.542;2022-07-29T06:20:53;23.60;90.80
4755;DHT22;2391;47.212;7.542;2022-07-29T06:23:20;23.50;91.10
4755;DHT22;2391;47.212;7.542;2022-07-29T06:25:46;23.60;91.20
4755;DHT22;2391;47.212;7.542;2022-07-29T06:28:12;23.50;90.80
4755;DHT22;2391;47.212;7.542;2022-07-29T06:30:38;23.50;90.90
4755;DHT22;2391;47.212;7.542;2022-07-29T06:33:04;23.50;90.80
4755;DHT22;2391;47.212;7.542;2022-07-29T06:35:33;23.40;90.90
4755;DHT22;2391;47.212;7.542;2022-07-29T06:38:02;23.40;91.10
4755;DHT22;2391;47.212;7.542;2022-07-29T06:40:28;23.50;91.40
4755;DHT22;2391;47.212;7.542;2022-07-29T06:43:11;23.50;91.60
4755;DHT22;2391;47.212;7.542;2022-07-29T06:45:37;23.50;91.50
4755;DHT22;2391;47.212;7.542;2022-07-29T06:48:05;23.50;91.50
4755;DHT22;2391;47.212;7.542;2022-07-29T06:50:31;23.50;91.80
4755;DHT22;2391;47.212;7.542;2022-07-29T06:52:57;23.50;92.00
4755;DHT22;2391;47.212;7.542;2022-07-29T06:55:23;23.60;92.00
4755;DHT22;2391;47.212;7.542;2022-07-29T06:57:50;23.60;92.20
4755;DHT22;2391;47.212;7.542;2022-07-29T07:00:17;23.70;92.40
4755;DHT22;2391;47.212;7.542;2022-07-29T07:02:43;23.70;92.10
4755;DHT22;2391;47.212;7.542;2022-07-29T07:05:09;23.70;92.10
4755;DHT22;2391;47.212;7.542;2022-07-29T07:07:35;23.70;92.00
4755;DHT22;2391;47.212;7.542;2022-07-29T07:10:01;23.70;92.10
4755;DHT22;2391;47.212;7.542;2022-07-29T07:12:27;23.80;92.10
4755;DHT22;2391;47.212;7.542;2022-07-29T07:14:52;23.80;92.00
4755;DHT22;2391;47.212;7.542;2022-07-29T07:17:18;23.70;92.10
4755;DHT22;2391;47.212;7.542;2022-07-29T07:19:44;23.70;92.30
4755;DHT22;2391;47.212;7.542;2022-07-29T07:22:10;23.70;92.50
4755;DHT22;2391;47.212;7.542;2022-07-29T07:24:36;23.70;92.80
4755;DHT22;2391;47.212;7.542;2022-07-29T07:27:03;23.70;92.20
4755;DHT22;2391;47.212;7.542;2022-07-29T07:29:28;23.60;92.80
4755;DHT22;2391;47.212;7.542;2022-07-29T07:31:54;23.60;92.90
4755;DHT22;2391;47.212;7.542;2022-07-29T07:34:20;23.60;93.20
4755;DHT22;2391;47.212;7.542;2022-07-29T07:36:46;23.60;93.40
4755;DHT22;2391;47.212;7.542;2022-07-29T07:39:12;23.70;93.20
4755;DHT22;2391;47.212;7.542;2022-07-29T07:41:38;23.70;93.50
4755;DHT22;2391;47.212;7.542;2022-07-29T07:44:04;23.70;93.50
4755;DHT22;2391;47.212;7.542;2022-07-29T07:46:30;23.80;93.30
4755;DHT22;2391;47.212;7.542;2022-07-29T07:48:56;23.80;93.30
4755;DHT22;2391;47.212;7.542;2022-07-29T07:51:22;23.80;93.30
4755;DHT22;2391;47.212;7.542;2022-07-29T07:53:48;23.80;93.50
4755;DHT22;2391;47.212;7.542;2022-07-29T07:56:16;23.80;93.70
4755;DHT22;2391;47.212;7.542;2022-07-29T07:58:42;23.80;93.40
4755;DHT22;2391;47.212;7.542;2022-07-29T08:01:08;23.70;93.40
4755;DHT22;2391;47.212;7.542;2022-07-29T08:03:34;23.60;93.70
4755;DHT22;2391;47.212;7.542;2022-07-29T08:06:01;23.70;93.80
4755;DHT22;2391;47.212;7.542;2022-07-29T08:08:27;23.60;93.50
4755;DHT22;2391;47.212;7.542;2022-07-29T08:10:52;23.70;93.40
4755;DHT22;2391;47.212;7.542;2022-07-29T08:13:20;23.70;93.60
4755;DHT22;2391;47.212;7.542;2022-07-29T08:15:46;23.80;93.50
4755;DHT22;2391;47.212;7.542;2022-07-29T08:18:13;24.00;93.00
4755;DHT22;2391;47.212;7.542;2022-07-29T08:20:39;24.10;93.20
4755;DHT22;2391;47.212;7.542;2022-07-29T08:23:06;24.30;93.50
4755;DHT22;2391;47.212;7.542;2022-07-29T08:25:36;24.40;92.90
4755;DHT22;2391;47.212;7.542;2022-07-29T08:28:03;24.40;92.10
4755;DHT22;2391;47.212;7.542;2022-07-29T08:30:29;24.40;91.60
4755;DHT22;2391;47.212;7.542;2022-07-29T08:32:55;24.40;91.80
4755;DHT22;2391;47.212;7.542;2022-07-29T08:35:23;24.40;92.00
4755;DHT22;2391;47.212;7.542;2022-07-29T08:37:49;24.40;92.00
4755;DHT22;2391;47.212;7.542;2022-07-29T08:40:16;24.40;92.00
4755;DHT22;2391;47.212;7.542;2022-07-29T08:42:42;24.50;92.00
4755;DHT22;2391;47.212;7.542;2022-07-29T08:45:08;24.60;92.10
4755;DHT22;2391;47.212;7.542;2022-07-29T08:47:35;24.70;91.30
4755;DHT22;2391;47.212;7.542;2022-07-29T08:50:08;24.80;91.80
4755;DHT22;2391;47.212;7.542;2022-07-29T08:52:36;25.00;91.50
4755;DHT22;2391;47.212;7.542;2022-07-29T08:55:04;25.20;91.70
4755;DHT22;2391;47.212;7.542;2022-07-29T08:57:32;25.30;91.10
4755;DHT22;2391;47.212;7.542;2022-07-29T09:00:01;25.40;91.50
4755;DHT22;2391;47.212;7.542;2022-07-29T09:02:29;25.30;90.60
4755;DHT22;2391;47.212;7.542;2022-07-29T09:04:57;25.40;90.90
4755;DHT22;2391;47.212;7.542;2022-07-29T09:07:25;25.40;91.80
4755;DHT22;2391;47.212;7.542;2022-07-29T09:09:51;25.50;91.20
4755;DHT22;2391;47.212;7.542;2022-07-29T09:12:17;25.50;91.50
4755;DHT22;2391;47.212;7.542;2022-07-29T09:14:43;25.50;90.10
4755;DHT22;2391;47.212;7.542;2022-07-29T09:17:09;25.60;90.00
4755;DHT22;2391;47.212;7.542;2022-07-29T09:19:37;25.70;90.40
4755;DHT22;2391;47.212;7.542;2022-07-29T09:22:04;25.70;90.00
4755;DHT22;2391;47.212;7.542;2022-07-29T09:24:45;25.70;89.60
4755;DHT22;2391;47.212;7.542;2022-07-29T09:27:23;25.80;83.50
4755;DHT22;2391;47.212;7.542;2022-07-29T09:30:08;25.80;85.80
4755;DHT22;2391;47.212;7.542;2022-07-29T09:32:57;25.90;87.30
4755;DHT22;2391;47.212;7.542;2022-07-29T09:35:25;26.10;86.70
4755;DHT22;2391;47.212;7.542;2022-07-29T09:37:52;26.20;83.60
4755;DHT22;2391;47.212;7.542;2022-07-29T09:40:21;26.10;81.90
4755;DHT22;2391;47.212;7.542;2022-07-29T09:42:47;26.10;84.60
4755;DHT22;2391;47.212;7.542;2022-07-29T09:45:28;26.20;84.80
4755;DHT22;2391;47.212;7.542;2022-07-29T09:47:55;26.20;85.90
4755;DHT22;2391;47.212;7.542;2022-07-29T09:50:39;26.30;84.40
4755;DHT22;2391;47.212;7.542;2022-07-29T09:53:06;26.30;83.60
4755;DHT22;2391;47.212;7.542;2022-07-29T09:55:48;26.30;83.10
4755;DHT22;2391;47.212;7.542;2022-07-29T09:58:20;26.20;85.20
4755;DHT22;2391;47.212;7.542;2022-07-29T10:00:44;26.30;84.80
4755;DHT22;2391;47.212;7.542;2022-07-29T10:03:10;26.30;84.60
4755;DHT22;2391;47.212;7.542;2022-07-29T10:05:37;26.40;82.70
4755;DHT22;2391;47.212;7.542;2022-07-29T10:08:04;26.50;82.80
4755;DHT22;2391;47.212;7.542;2022-07-29T10:10:33;26.50;83.70
4755;DHT22;2391;47.212;7.542;2022-07-29T10:13:01;26.60;82.90
4755;DHT22;2391;47.212;7.542;2022-07-29T10:18:21;26.60;82.70
4755;DHT22;2391;47.212;7.542;2022-07-29T13:25:32;27.10;76.70
4755;DHT22;2391;47.212;7.542;2022-07-29T13:34:26;26.60;83.50
4755;DHT22;2391;47.212;7.542;2022-07-29T13:44:01;26.10;82.60
4755;DHT22;2391;47.212;7.542;2022-07-29T13:46:27;25.50;82.00
4755;DHT22;2391;47.212;7.542;2022-07-29T13:48:52;25.00;84.00
4755;DHT22;2391;47.212;7.542;2022-07-29T13:51:18;24.60;86.70
4755;DHT22;2391;47.212;7.542;2022-07-29T13:53:44;24.30;88.80
4755;DHT22;2391;47.212;7.542;2022-07-29T13:56:10;24.00;89.90
4755;DHT22;2391;47.212;7.542;2022-07-29T13:58:36;23.80;90.10
4755;DHT22;2391;47.212;7.542;2022-07-29T14:01:02;23.70;90.70
4755;DHT22;2391;47.212;7.542;2022-07-29T14:03:28;23.70;90.90
4755;DHT22;2391;47.212;7.542;2022-07-29T14:05:54;23.80;90.80
4755;DHT22;2391;47.212;7.542;2022-07-29T14:08:21;23.90;90.70
4755;DHT22;2391;47.212;7.542;2022-07-29T14:10:47;24.00;90.60
4755;DHT22;2391;47.212;7.542;2022-07-29T14:13:13;24.00;90.50
4755;DHT22;2391;47.212;7.542;2022-07-29T14:15:39;24.10;90.60
4755;DHT22;2391;47.212;7.542;2022-07-29T14:18:05;24.20;90.60
4755;DHT22;2391;47.212;7.542;2022-07-29T14:20:31;24.20;90.60
4755;DHT22;2391;47.212;7.542;2022-07-29T14:22:57;24.30;90.70
4755;DHT22;2391;47.212;7.542;2022-07-29T14:25:23;24.20;90.80
4755;DHT22;2391;47.212;7.542;2022-07-29T14:27:49;24.20;91.00
4755;DHT22;2391;47.212;7.542;2022-07-29T14:30:15;24.20;91.10
4755;DHT22;2391;47.212;7.542;2022-07-29T14:32:41;24.10;91.00
4755;DHT22;2391;47.212;7.542;2022-07-29T14:35:07;24.00;91.00
4755;DHT22;2391;47.212;7.542;2022-07-29T14:37:33;23.90;91.40
4755;DHT22;2391;47.212;7.542;2022-07-29T14:40:02;23.90;91.60
4755;DHT22;2391;47.212;7.542;2022-07-29T14:42:29;23.90;91.80
4755;DHT22;2391;47.212;7.542;2022-07-29T14:44:57;23.90;91.90
4755;DHT22;2391;47.212;7.542;2022-07-29T14:47:23;24.00;91.80
4755;DHT22;2391;47.212;7.542;2022-07-29T14:49:50;24.10;91.80
4755;DHT22;2391;47.212;7.542;2022-07-29T14:52:16;24.20;91.40
4755;DHT22;2391;47.212;7.542;2022-07-29T14:54:42;24.40;91.50
4755;DHT22;2391;47.212;7.542;2022-07-29T14:57:08;24.50;91.40
4755;DHT22;2391;47.212;7.542;2022-07-29T14:59:34;24.60;91.30
4755;DHT22;2391;47.212;7.542;2022-07-29T15:02:00;24.70;91.40
4755;DHT22;2391;47.212;7.542;2022-07-29T15:04:26;24.70;91.20
4755;DHT22;2391;47.212;7.542;2022-07-29T15:06:52;24.80;91.20
4755;DHT22;2391;47.212;7.542;2022-07-29T15:09:18;24.80;91.00
4755;DHT22;2391;47.212;7.542;2022-07-29T15:11:44;24.90;91.00
4755;DHT22;2391;47.212;7.542;2022-07-29T15:14:10;24.90;91.10
4755;DHT22;2391;47.212;7.542;2022-07-29T15:16:37;25.00;91.20
4755;DHT22;2391;47.212;7.542;2022-07-29T15:19:04;25.00;91.20
4755;DHT22;2391;47.212;7.542;2022-07-29T15:21:30;25.10;91.00
4755;DHT22;2391;47.212;7.542;2022-07-29T15:23:56;25.10;91.40
4755;DHT22;2391;47.212;7.542;2022-07-29T15:26:22;25.10;91.20
4755;DHT22;2391;47.212;7.542;2022-07-29T15:28:49;25.20;91.50
4755;DHT22;2391;47.212;7.542;2022-07-29T15:31:15;25.20;91.80
4755;DHT22;2391;47.212;7.542;2022-07-29T15:33:40;25.20;91.50
4755;DHT22;2391;47.212;7.542;2022-07-29T15:36:06;25.20;91.40
4755;DHT22;2391;47.212;7.542;2022-07-29T15:38:32;25.20;91.40
4755;DHT22;2391;47.212;7.542;2022-07-29T15:40:58;25.30;91.10
4755;DHT22;2391;47.212;7.542;2022-07-29T15:43:24;25.30;91.00
4755;DHT22;2391;47.212;7.542;2022-07-29T15:45:50;25.30;90.70
4755;DHT22;2391;47.212;7.542;2022-07-29T15:48:37;25.30;90.60
4755;DHT22;2391;47.212;7.542;2022-07-29T15:51:03;25.20;90.60
4755;DHT22;2391;47.212;7.542;2022-07-29T15:53:29;25.10;91.30
4755;DHT22;2391;47.212;7.542;2022-07-29T15:55:55;25.10;91.90
4755;DHT22;2391;47.212;7.542;2022-07-29T15:58:21;25.10;92.20
4755;DHT22;2391;47.212;7.542;2022-07-29T16:00:47;25.10;91.60
4755;DHT22;2391;47.212;7.542;2022-07-29T16:03:13;25.20;91.80
4755;DHT22;2391;47.212;7.542;2022-07-29T16:05:39;25.30;91.30
4755;DHT22;2391;47.212;7.542;2022-07-29T16:08:05;25.30;90.90
4755;DHT22;2391;47.212;7.542;2022-07-29T16:10:31;25.30;91.40
4755;DHT22;2391;47.212;7.542;2022-07-29T16:12:57;25.30;91.00
4755;DHT22;2391;47.212;7.542;2022-07-29T16:15:23;25.20;90.70
4755;DHT22;2391;47.212;7.542;2022-07-29T16:17:49;25.10;90.90
4755;DHT22;2391;47.212;7.542;2022-07-29T16:20:15;25.20;91.50
4755;DHT22;2391;47.212;7.542;2022-07-29T16:22:41;25.20;91.20
4755;DHT22;2391;47.212;7.542;2022-07-29T16:25:08;25.20;91.10
4755;DHT22;2391;47.212;7.542;2022-07-29T16:27:34;25.30;92.00
4755;DHT22;2391;47.212;7.542;2022-07-29T16:30:00;25.40;91.80
4755;DHT22;2391;47.212;7.542;2022-07-29T16:32:25;25.40;91.00
4755;DHT22;2391;47.212;7.542;2022-07-29T16:34:51;25.30;90.70
4755;DHT22;2391;47.212;7.542;2022-07-29T16:37:17;25.30;90.60
4755;DHT22;2391;47.212;7.542;2022-07-29T16:39:43;25.30;91.30
4755;DHT22;2391;47.212;7.542;2022-07-29T16:42:09;25.20;90.90
4755;DHT22;2391;47.212;7.542;2022-07-29T16:44:35;25.20;90.90
4755;DHT22;2391;47.212;7.542;2022-07-29T16:47:00;25.10;90.80
4755;DHT22;2391;47.212;7.542;2022-07-29T16:49:26;25.10;91.10
4755;DHT22;2391;47.212;7.542;2022-07-29T16:51:53;25.10;91.00
4755;DHT22;2391;47.212;7.542;2022-07-29T16:54:18;25.20;91.00
4755;DHT22;2391;47.212;7.542;2022-07-29T16:56:44;25.20;90.80
4755;DHT22;2391;47.212;7.542;2022-07-29T16:59:10;25.20;90.70
4755;DHT22;2391;47.212;7.542;2022-07-29T17:01:36;25.20;90.50
4755;DHT22;2391;47.212;7.542;2022-07-29T17:04:02;25.30;90.40
4755;DHT22;2391;47.212;7.542;2022-07-29T17:06:34;25.30;90.40
4755;DHT22;2391;47.212;7.542;2022-07-29T17:09:06;25.20;90.20
4755;DHT22;2391;47.212;7.542;2022-07-29T17:11:29;25.30;90.30
4755;DHT22;2391;47.212;7.542;2022-07-29T17:13:55;25.30;90.20
4755;DHT22;2391;47.212;7.542;2022-07-29T17:16:24;25.40;90.30
4755;DHT22;2391;47.212;7.542;2022-07-29T17:18:52;25.50;90.00
4755;DHT22;2391;47.212;7.542;2022-07-29T17:21:18;25.50;88.70
4755;DHT22;2391;47.212;7.542;2022-07-29T17:23:44;25.40;89.30
4755;DHT22;2391;47.212;7.542;2022-07-29T17:26:10;25.40;89.80
4755;DHT22;2391;47.212;7.542;2022-07-29T17:28:36;25.30;89.00
4755;DHT22;2391;47.212;7.542;2022-07-29T17:31:02;25.00;89.50
4755;DHT22;2391;47.212;7.542;2022-07-29T17:33:28;25.00;90.30
4755;DHT22;2391;47.212;7.542;2022-07-29T17:35:54;25.10;90.60
4755;DHT22;2391;47.212;7.542;2022-07-29T17:38:38;25.20;90.60
4755;DHT22;2391;47.212;7.542;2022-07-29T17:41:04;25.30;90.50
4755;DHT22;2391;47.212;7.542;2022-07-29T17:43:29;25.40;90.70
4755;DHT22;2391;47.212;7.542;2022-07-29T17:45:55;25.50;90.70
4755;DHT22;2391;47.212;7.542;2022-07-29T17:48:21;25.50;90.60
4755;DHT22;2391;47.212;7.542;2022-07-29T17:50:47;25.60;90.60
4755;DHT22;2391;47.212;7.542;2022-07-29T17:53:14;25.60;90.50
4755;DHT22;2391;47.212;7.542;2022-07-29T17:55:40;25.70;90.40
4755;DHT22;2391;47.212;7.542;2022-07-29T17:58:06;25.70;90.40
4755;DHT22;2391;47.212;7.542;2022-07-29T18:00:34;25.70;90.50
4755;DHT22;2391;47.212;7.542;2022-07-29T18:03:00;25.70;90.00
4755;DHT22;2391;47.212;7.542;2022-07-29T18:05:26;25.60;90.30
4755;DHT22;2391;47.212;7.542;2022-07-29T18:07:52;25.70;90.40
4755;DHT22;2391;47.212;7.542;2022-07-29T18:10:19;25.70;90.30
4755;DHT22;2391;47.212;7.542;2022-07-29T18:12:45;25.70;90.30
4755;DHT22;2391;47.212;7.542;2022-07-29T18:15:11;25.70;90.50
4755;DHT22;2391;47.212;7.542;2022-07-29T18:17:37;25.70;90.10
4755;DHT22;2391;47.212;7.542;2022-07-29T18:20:04;25.70;90.00
4755;DHT22;2391;47.212;7.542;2022-07-29T18:22:30;25.80;89.80
4755;DHT22;2391;47.212;7.542;2022-07-29T18:24:55;25.80;89.50
4755;DHT22;2391;47.212;7.542;2022-07-29T18:27:21;25.80;89.30
4755;DHT22;2391;47.212;7.542;2022-07-29T18:29:49;25.80;89.10
4755;DHT22;2391;47.212;7.542;2022-07-29T18:32:15;25.80;89.00
4755;DHT22;2391;47.212;7.542;2022-07-29T18:34:41;25.90;89.20
4755;DHT22;2391;47.212;7.542;2022-07-29T18:37:06;25.80;88.90
4755;DHT22;2391;47.212;7.542;2022-07-29T18:39:32;25.80;89.00
4755;DHT22;2391;47.212;7.542;2022-07-29T18:41:58;25.80;88.80
4755;DHT22;2391;47.212;7.542;2022-07-29T18:44:24;25.80;88.90
4755;DHT22;2391;47.212;7.542;2022-07-29T18:46:50;25.80;88.80
4755;DHT22;2391;47.212;7.542;2022-07-29T18:49:16;25.70;89.00
4755;DHT22;2391;47.212;7.542;2022-07-29T18:51:42;25.70;89.00
4755;DHT22;2391;47.212;7.542;2022-07-29T18:54:08;25.70;88.80
4755;DHT22;2391;47.212;7.542;2022-07-29T18:56:35;25.70;88.90
4755;DHT22;2391;47.212;7.542;2022-07-29T18:59:01;25.70;88.90
4755;DHT22;2391;47.212;7.542;2022-07-29T19:01:28;25.60;88.90
4755;DHT22;2391;47.212;7.542;2022-07-29T19:03:53;25.60;88.90
4755;DHT22;2391;47.212;7.542;2022-07-29T19:06:19;25.60;89.00
4755;DHT22;2391;47.212;7.542;2022-07-29T19:08:45;25.50;88.80
4755;DHT22;2391;47.212;7.542;2022-07-29T19:11:11;25.50;88.80
4755;DHT22;2391;47.212;7.542;2022-07-29T19:13:40;25.50;88.80
4755;DHT22;2391;47.212;7.542;2022-07-29T19:16:05;25.50;88.80
4755;DHT22;2391;47.212;7.542;2022-07-29T19:18:32;25.40;88.80
4755;DHT22;2391;47.212;7.542;2022-07-29T19:20:57;25.40;88.70
4755;DHT22;2391;47.212;7.542;2022-07-29T19:23:23;25.40;88.80
4755;DHT22;2391;47.212;7.542;2022-07-29T19:25:50;25.40;88.90
4755;DHT22;2391;47.212;7.542;2022-07-29T19:28:15;25.40;89.20
4755;DHT22;2391;47.212;7.542;2022-07-29T19:30:43;25.30;89.00
4755;DHT22;2391;47.212;7.542;2022-07-29T19:33:09;25.30;89.10